createdAt,value
2022-11-18T00:01:32.811Z,1.02
2022-11-18T00:04:01.573Z,2.38
2022-11-18T00:06:30.924Z,1.40
2022-11-18T00:09:00.222Z,1.58
2022-11-18T00:11:49.246Z,1.35
2022-11-18T00:14:20.475Z,1.15
2022-11-18T00:16:50.416Z,2.80
2022-11-18T00:19:19.695Z,2.55
2022-11-18T00:21:48.788Z,1.45
2022-11-18T00:24:17.745Z,3.17
2022-11-18T00:26:46.723Z,2.65
2022-11-18T00:29:15.564Z,1.92
2022-11-18T00:31:46.269Z,1.92
2022-11-18T00:34:15.823Z,1.55
2022-11-18T00:36:45.162Z,2.50
2022-11-18T00:39:15.167Z,2.85
2022-11-18T00:42:00.519Z,1.45
2022-11-18T00:44:29.258Z,2.38
2022-11-18T00:46:59.726Z,2.15
2022-11-18T00:49:28.320Z,1.83
2022-11-18T00:51:56.971Z,2.53
2022-11-18T00:54:25.633Z,1.70
2022-11-18T00:56:54.500Z,1.75
2022-11-18T00:59:23.148Z,2.25
2022-11-18T01:01:51.889Z,1.10
2022-11-18T01:04:22.201Z,1.55
2022-11-18T01:06:50.874Z,2.60
2022-11-18T01:09:19.722Z,1.90
2022-11-18T01:12:06.150Z,2.08
2022-11-18T01:14:34.846Z,3.10
2022-11-18T01:17:03.464Z,3.70
2022-11-18T01:19:33.606Z,5.13
2022-11-18T01:22:03.516Z,3.58
2022-11-18T01:24:32.319Z,3.13
2022-11-18T01:27:00.981Z,5.35
2022-11-18T01:29:29.572Z,7.97
2022-11-18T01:34:48.399Z,8.30
2022-11-18T01:37:17.169Z,7.53
2022-11-18T01:39:45.879Z,4.75
2022-11-18T01:42:16.651Z,4.97
2022-11-18T01:45:02.464Z,3.33
2022-11-18T01:47:34.247Z,2.17
2022-11-18T01:50:04.978Z,2.30
2022-11-18T01:52:34.280Z,3.50
2022-11-18T01:55:05.552Z,1.73
2022-11-18T01:57:34.345Z,1.67
2022-11-18T02:00:04.171Z,1.23
2022-11-18T02:02:35.686Z,2.05
2022-11-18T02:05:06.802Z,1.13
2022-11-18T02:07:37.237Z,1.42
2022-11-18T02:10:07.374Z,2.30
2022-11-18T02:12:37.101Z,0.95
2022-11-18T02:15:06.169Z,1.38
2022-11-18T02:17:40.890Z,0.50
2022-11-18T02:20:24.530Z,1.05
2022-11-18T02:23:07.130Z,1.55
2022-11-18T02:25:43.018Z,0.70
2022-11-18T02:28:29.415Z,1.50
2022-11-18T02:31:00.829Z,1.65
2022-11-18T02:33:33.090Z,1.95
2022-11-18T02:36:04.768Z,1.03
2022-11-18T02:38:35.991Z,4.88
2022-11-18T02:41:07.349Z,2.08
2022-11-18T02:43:37.672Z,0.82
2022-11-18T02:46:09.826Z,1.70
2022-11-18T02:48:41.004Z,0.35
2022-11-18T02:51:10.779Z,1.75
2022-11-18T02:53:40.773Z,1.10
2022-11-18T02:56:10.421Z,1.35
2022-11-18T02:58:39.137Z,0.85
2022-11-18T03:01:16.993Z,1.92
2022-11-18T03:03:45.734Z,0.93
2022-11-18T03:06:23.473Z,0.85
2022-11-18T03:08:56.470Z,1.52
2022-11-18T03:11:25.657Z,1.25
2022-11-18T03:14:01.763Z,1.38
2022-11-18T03:16:33.971Z,1.83
2022-11-18T03:19:07.041Z,1.30
2022-11-18T03:21:38.726Z,1.42
2022-11-18T03:24:09.239Z,0.50
2022-11-18T03:26:40.279Z,0.55
2022-11-18T03:29:11.988Z,0.82
2022-11-18T03:31:43.183Z,0.98
2022-11-18T03:34:15.105Z,1.40
2022-11-18T03:36:51.284Z,1.95
2022-11-18T03:39:21.952Z,1.85
2022-11-18T03:41:52.881Z,5.70
2022-11-18T03:44:22.876Z,1.27
2022-11-18T03:46:54.384Z,1.33
2022-11-18T03:49:26.258Z,2.13
2022-11-18T03:51:57.260Z,1.35
2022-11-18T03:54:26.848Z,1.50
2022-11-18T03:57:09.668Z,0.60
2022-11-18T03:59:40.136Z,0.55
2022-11-18T04:02:12.952Z,1.33
2022-11-18T04:04:41.975Z,1.08
2022-11-18T04:07:13.178Z,0.88
2022-11-18T04:09:44.525Z,0.95
2022-11-18T04:12:15.163Z,0.98
2022-11-18T04:14:45.104Z,1.52
2022-11-18T04:17:16.058Z,1.17
2022-11-18T04:19:44.898Z,1.85
2022-11-18T04:22:13.505Z,0.32
2022-11-18T04:24:42.324Z,3.50
2022-11-18T04:27:11.542Z,1.35
2022-11-18T04:29:40.396Z,1.17
2022-11-18T04:32:09.071Z,0.75
2022-11-18T04:34:41.181Z,0.93
2022-11-18T04:37:09.864Z,0.60
2022-11-18T04:39:38.460Z,1.20
2022-11-18T04:42:07.261Z,1.98
2022-11-18T04:44:36.186Z,0.70
2022-11-18T04:47:05.861Z,2.22
2022-11-18T04:49:35.028Z,1.90
2022-11-18T04:52:05.671Z,2.97
2022-11-18T04:54:34.400Z,1.52
2022-11-18T04:57:03.113Z,2.22
2022-11-18T04:59:32.349Z,0.73
2022-11-18T05:02:01.444Z,0.90
2022-11-18T05:04:31.499Z,0.93
2022-11-18T05:07:00.698Z,0.50
2022-11-18T05:09:32.268Z,0.63
2022-11-18T05:12:29.897Z,0.93
2022-11-18T05:14:58.728Z,0.93
2022-11-18T05:17:27.410Z,1.52
2022-11-18T05:19:56.098Z,1.00
2022-11-18T05:22:25.110Z,0.43
2022-11-18T05:24:55.179Z,0.90
2022-11-18T05:27:23.803Z,0.85
2022-11-18T05:29:53.070Z,0.52
2022-11-18T05:32:21.889Z,1.05
2022-11-18T05:34:50.881Z,1.27
2022-11-18T05:37:19.598Z,1.83
2022-11-18T05:39:48.265Z,1.75
2022-11-18T05:42:35.309Z,1.38
2022-11-18T05:45:04.614Z,2.30
2022-11-18T05:47:53.784Z,2.45
2022-11-18T05:50:22.455Z,4.50
2022-11-18T05:52:51.247Z,2.85
2022-11-18T05:55:21.020Z,2.72
2022-11-18T05:57:51.753Z,1.92
2022-11-18T06:00:20.518Z,2.97
2022-11-18T06:02:50.043Z,1.45
2022-11-18T06:05:20.142Z,3.22
2022-11-18T06:07:48.968Z,2.90
2022-11-18T06:10:19.777Z,2.17
2022-11-18T06:12:54.550Z,1.98
2022-11-18T06:15:25.872Z,1.85
2022-11-18T06:17:57.047Z,1.85
2022-11-18T06:20:25.864Z,1.98
2022-11-18T06:22:56.125Z,2.35
2022-11-18T06:25:25.153Z,2.20
2022-11-18T06:27:56.343Z,2.75
2022-11-18T06:30:25.399Z,3.17
2022-11-18T06:32:54.394Z,3.42
2022-11-18T06:35:23.234Z,3.13
2022-11-18T06:37:51.958Z,3.88
2022-11-18T06:40:20.844Z,1.55
2022-11-18T06:43:06.974Z,3.65
2022-11-18T06:45:37.159Z,2.75
2022-11-18T06:48:06.145Z,4.25
2022-11-18T06:50:34.952Z,6.65
2022-11-18T06:53:03.638Z,3.53
2022-11-18T06:55:32.311Z,1.23
2022-11-18T06:58:01.038Z,2.42
2022-11-18T07:00:29.917Z,1.77
2022-11-18T07:03:00.136Z,2.45
2022-11-18T07:05:28.873Z,1.88
2022-11-18T07:07:57.679Z,0.63
2022-11-18T07:10:26.335Z,1.05
2022-11-18T07:12:55.073Z,1.17
2022-11-18T07:15:23.814Z,1.17
2022-11-18T07:17:52.455Z,1.20
2022-11-18T07:20:22.565Z,0.47
2022-11-18T07:22:53.947Z,0.47
2022-11-18T07:25:22.543Z,1.55
2022-11-18T07:27:51.323Z,1.15
2022-11-18T07:30:20.226Z,1.05
2022-11-18T07:32:49.037Z,1.08
2022-11-18T07:35:19.201Z,2.25
2022-11-18T07:37:49.346Z,0.57
2022-11-18T07:40:18.377Z,0.93
2022-11-18T07:42:47.056Z,1.30
2022-11-18T07:45:25.179Z,0.80
2022-11-18T07:47:53.996Z,1.90
2022-11-18T07:50:22.687Z,2.90
2022-11-18T07:52:52.788Z,1.23
2022-11-18T07:55:21.515Z,1.20
2022-11-18T07:57:50.042Z,1.95
2022-11-18T08:00:19.368Z,2.80
2022-11-18T08:02:51.311Z,5.72
2022-11-18T08:05:20.103Z,3.70
2022-11-18T08:07:48.928Z,3.05
2022-11-18T08:10:19.522Z,2.90
2022-11-18T08:12:48.509Z,1.85
2022-11-18T08:15:18.341Z,2.05
2022-11-18T08:17:47.139Z,2.88
2022-11-18T08:20:15.887Z,2.03
2022-11-18T08:22:44.627Z,2.45
2022-11-18T08:25:13.420Z,2.38
2022-11-18T08:27:43.602Z,4.65
2022-11-18T08:30:12.993Z,3.42
2022-11-18T08:32:41.830Z,3.83
2022-11-18T08:35:11.474Z,2.05
2022-11-18T08:37:40.741Z,2.03
2022-11-18T08:40:09.900Z,2.15
2022-11-18T08:42:38.834Z,1.98
2022-11-18T08:45:11.566Z,2.53
2022-11-18T08:47:45.557Z,3.15
2022-11-18T08:50:19.760Z,1.83
2022-11-18T08:52:48.508Z,3.72
2022-11-18T08:55:17.239Z,2.28
2022-11-18T08:57:50.047Z,1.98
2022-11-18T09:00:21.060Z,2.17
2022-11-18T09:02:49.716Z,1.10
2022-11-18T09:05:18.516Z,2.80
2022-11-18T09:07:47.413Z,2.50
2022-11-18T09:10:16.031Z,3.63
2022-11-18T09:12:44.784Z,2.22
2022-11-18T09:15:14.749Z,2.40
2022-11-18T09:17:45.500Z,1.80
2022-11-18T09:20:14.155Z,2.28
2022-11-18T09:22:43.011Z,2.75
2022-11-18T09:25:12.226Z,3.25
2022-11-18T09:27:41.284Z,1.95
2022-11-18T09:30:10.766Z,2.20
2022-11-18T09:32:39.399Z,3.28
2022-11-18T09:35:09.566Z,4.28
2022-11-18T09:37:38.355Z,4.20
2022-11-18T09:40:07.651Z,4.18
2022-11-18T09:42:46.210Z,3.75
2022-11-18T09:45:23.989Z,2.45
2022-11-18T09:47:53.331Z,3.35
2022-11-18T09:53:19.638Z,2.88
2022-11-18T09:55:49.074Z,3.95
2022-11-18T09:58:19.949Z,4.28
2022-11-18T10:00:48.600Z,2.65
2022-11-18T10:03:19.984Z,2.90
2022-11-18T10:05:55.289Z,3.05
2022-11-18T10:08:26.508Z,4.97
2022-11-18T10:10:59.256Z,3.33
2022-11-18T10:13:34.115Z,5.03
2022-11-18T10:16:08.552Z,4.43
2022-11-18T10:21:38.718Z,3.90
2022-11-18T10:24:12.342Z,2.78
2022-11-18T10:26:41.742Z,3.50
2022-11-18T10:29:12.460Z,2.88
2022-11-18T10:31:41.980Z,5.15
2022-11-18T10:34:12.298Z,3.00
2022-11-18T10:36:42.520Z,4.18
2022-11-18T10:39:14.840Z,5.65
2022-11-18T10:41:46.103Z,3.27
2022-11-18T10:44:29.281Z,4.68
2022-11-18T10:46:57.962Z,2.42
2022-11-18T10:49:26.724Z,3.95
2022-11-18T10:52:09.918Z,3.88
2022-11-18T10:54:39.437Z,2.40
2022-11-18T10:57:11.176Z,4.90
2022-11-18T10:59:41.637Z,3.25
2022-11-18T11:02:15.989Z,4.72
2022-11-18T11:04:45.467Z,12.25
2022-11-18T11:07:25.299Z,5.85
2022-11-18T11:10:23.819Z,5.82
2022-11-18T11:12:55.229Z,3.92
2022-11-18T11:15:27.602Z,8.68
2022-11-18T11:18:13.251Z,6.43
2022-11-18T11:20:42.272Z,5.53
2022-11-18T11:23:15.685Z,4.88
2022-11-18T11:28:45.789Z,3.93
2022-11-18T11:31:17.422Z,5.63
2022-11-18T11:33:52.272Z,6.93
2022-11-18T11:36:35.986Z,4.65
2022-11-18T11:39:12.081Z,5.38
2022-11-18T11:41:47.150Z,6.97
2022-11-18T11:44:37.481Z,5.40
2022-11-18T11:47:28.400Z,3.70
2022-11-18T11:50:02.384Z,5.32
2022-11-18T11:52:36.264Z,5.18
2022-11-18T11:55:14.836Z,3.65
2022-11-18T11:57:49.690Z,2.35
2022-11-18T12:00:18.888Z,2.58
2022-11-18T12:03:04.115Z,9.07
2022-11-18T12:05:36.234Z,5.55
2022-11-18T12:08:07.744Z,6.70
2022-11-18T12:10:43.075Z,8.32
2022-11-18T12:13:21.572Z,5.72
2022-11-18T12:15:56.662Z,1.90
2022-11-18T12:18:28.166Z,2.53
2022-11-18T12:20:57.061Z,2.03
2022-11-18T12:23:27.091Z,2.50
2022-11-18T12:25:58.609Z,3.00
2022-11-18T12:28:28.817Z,3.83
2022-11-18T12:31:16.014Z,3.63
2022-11-18T12:33:45.326Z,1.75
2022-11-18T12:36:26.811Z,3.08
2022-11-18T12:38:55.895Z,2.45
2022-11-18T12:42:00.634Z,1.40
2022-11-18T12:44:31.587Z,2.13
2022-11-18T12:47:00.861Z,1.23
2022-11-18T12:49:48.183Z,0.85
2022-11-18T12:52:31.845Z,1.27
2022-11-18T12:55:02.292Z,1.27
2022-11-18T12:57:34.139Z,1.45
2022-11-18T13:00:17.819Z,0.85
2022-11-18T13:02:54.632Z,1.05
2022-11-18T13:05:24.529Z,1.20
2022-11-18T13:08:12.555Z,1.23
2022-11-18T13:10:45.777Z,1.15
2022-11-18T13:16:00.597Z,1.75
2022-11-18T13:18:30.803Z,0.50
2022-11-18T13:21:20.278Z,1.25
2022-11-18T13:24:00.364Z,1.25
2022-11-18T13:26:30.849Z,0.55
2022-11-18T13:29:04.692Z,1.00
2022-11-18T13:31:37.206Z,1.02
2022-11-18T13:34:12.111Z,0.82
2022-11-18T13:36:44.611Z,0.65
2022-11-18T13:39:19.015Z,0.75
2022-11-18T13:41:48.012Z,1.65
2022-11-18T13:44:20.919Z,0.70
2022-11-18T13:46:51.335Z,0.75
2022-11-18T13:49:23.836Z,1.08
2022-11-18T13:51:53.227Z,0.47
2022-11-18T13:54:24.488Z,0.57
2022-11-18T13:56:53.630Z,3.15
2022-11-18T13:59:23.920Z,2.53
2022-11-18T14:01:55.679Z,1.98
2022-11-18T14:04:27.638Z,1.23
2022-11-18T14:10:02.729Z,0.82
2022-11-18T14:15:23.924Z,0.88
2022-11-18T14:17:54.512Z,0.30
2022-11-18T14:20:25.428Z,0.40
2022-11-18T14:22:56.045Z,0.43
2022-11-18T14:25:29.340Z,2.92
2022-11-18T14:27:58.811Z,0.30
2022-11-18T14:30:29.602Z,0.38
2022-11-18T14:33:05.717Z,0.60
2022-11-18T14:35:36.111Z,0.40
2022-11-18T14:41:01.618Z,0.63
2022-11-18T14:43:31.338Z,0.70
2022-11-18T14:46:00.804Z,0.30
2022-11-18T14:48:32.673Z,0.25
2022-11-18T14:51:02.976Z,0.90
2022-11-18T14:53:33.418Z,0.63
2022-11-18T14:56:02.239Z,0.52
2022-11-18T14:58:30.804Z,0.60
2022-11-18T15:00:59.555Z,0.30
2022-11-18T15:03:29.300Z,0.28
2022-11-18T15:05:58.402Z,0.65
2022-11-18T15:08:29.157Z,1.17
2022-11-18T15:11:01.707Z,3.30
2022-11-18T15:13:30.455Z,1.02
2022-11-18T15:15:59.228Z,0.45
2022-11-18T15:18:28.209Z,0.47
2022-11-18T15:20:57.114Z,0.30
2022-11-18T15:23:29.743Z,0.40
2022-11-18T15:26:00.393Z,0.55
2022-11-18T15:28:29.061Z,0.20
2022-11-18T15:30:57.808Z,0.30
2022-11-18T15:33:26.663Z,1.00
2022-11-18T15:35:56.055Z,1.38
2022-11-18T15:38:25.019Z,1.80
2022-11-18T15:40:54.130Z,2.15
2022-11-18T15:43:24.511Z,1.55
2022-11-18T15:45:57.888Z,1.95
2022-11-18T15:48:26.987Z,1.33
2022-11-18T15:50:55.667Z,1.90
2022-11-18T15:53:24.409Z,3.92
2022-11-18T15:55:53.285Z,3.95
2022-11-18T15:58:22.041Z,3.53
2022-11-18T16:00:52.371Z,3.95
2022-11-18T16:03:21.338Z,4.00
2022-11-18T16:05:50.399Z,7.85
2022-11-18T16:08:19.256Z,4.80
2022-11-18T16:11:05.769Z,7.45
2022-11-18T16:13:34.996Z,9.27
2022-11-18T16:16:06.012Z,5.70
2022-11-18T16:18:40.574Z,5.80
2022-11-18T16:21:10.342Z,5.60
2022-11-18T16:23:39.569Z,4.45
2022-11-18T16:26:08.873Z,2.17
2022-11-18T16:28:40.188Z,4.13
2022-11-18T16:31:27.957Z,8.70
2022-11-18T16:33:56.742Z,7.85
2022-11-18T16:36:28.732Z,5.78
2022-11-18T16:38:58.333Z,4.63
2022-11-18T16:41:32.869Z,3.28
2022-11-18T16:44:13.422Z,5.72
2022-11-18T16:46:46.897Z,3.95
2022-11-18T16:49:18.096Z,6.65
2022-11-18T16:51:47.877Z,7.65
2022-11-18T16:54:18.445Z,10.23
2022-11-18T16:56:47.861Z,6.55
2022-11-18T16:59:18.204Z,5.50
2022-11-18T17:01:49.285Z,7.05
2022-11-18T17:04:18.544Z,4.40
2022-11-18T17:06:47.935Z,3.28
2022-11-18T17:09:18.377Z,4.97
2022-11-18T17:11:47.769Z,4.93
2022-11-18T17:14:16.939Z,5.50
2022-11-18T17:16:45.578Z,5.82
2022-11-18T17:19:16.794Z,7.20
2022-11-18T17:21:45.618Z,5.65
2022-11-18T17:24:14.955Z,7.53
2022-11-18T17:26:43.832Z,8.13
2022-11-18T17:29:12.973Z,6.38
2022-11-18T17:31:46.674Z,6.95
2022-11-18T17:34:17.578Z,7.30
2022-11-18T17:36:46.759Z,8.07
2022-11-18T17:39:16.275Z,5.50
2022-11-18T17:42:02.533Z,4.72
2022-11-18T17:44:31.404Z,5.30
2022-11-18T17:47:03.013Z,4.05
2022-11-18T17:49:34.387Z,3.05
2022-11-18T17:52:03.149Z,6.55
2022-11-18T17:54:32.284Z,4.18
2022-11-18T17:57:01.162Z,3.75
2022-11-18T17:59:31.986Z,4.18
2022-11-18T18:02:00.944Z,5.43
2022-11-18T18:04:43.361Z,4.65
2022-11-18T18:07:24.171Z,3.15
2022-11-18T18:09:53.589Z,3.28
2022-11-18T18:12:39.832Z,9.05
2022-11-18T18:15:18.643Z,4.38
2022-11-18T18:17:53.169Z,4.82
2022-11-18T18:20:21.983Z,5.85
2022-11-18T18:22:52.462Z,2.33
2022-11-18T18:25:22.652Z,4.28
2022-11-18T18:27:51.633Z,6.32
2022-11-18T18:30:20.474Z,5.47
2022-11-18T18:32:52.433Z,3.47
2022-11-18T18:35:22.729Z,1.45
2022-11-18T18:37:53.075Z,0.90
2022-11-18T18:40:22.734Z,1.45
2022-11-18T18:42:51.494Z,2.13
2022-11-18T18:45:43.473Z,1.90
2022-11-18T18:48:12.236Z,0.98
2022-11-18T18:50:41.005Z,1.10
2022-11-18T18:53:11.457Z,1.90
2022-11-18T18:55:44.917Z,0.98
2022-11-18T18:58:14.181Z,1.70
2022-11-18T19:00:42.992Z,0.95
2022-11-18T19:03:11.931Z,1.05
2022-11-18T19:06:12.719Z,1.00
2022-11-18T19:08:31.284Z,1.55
2022-11-18T19:11:00.084Z,1.83
2022-11-18T19:13:28.835Z,1.20
2022-11-18T19:15:58.114Z,1.45
2022-11-18T19:18:27.676Z,0.80
2022-11-18T19:21:00.717Z,1.55
2022-11-18T19:23:31.556Z,1.55
2022-11-18T19:26:01.138Z,0.63
2022-11-18T19:28:31.450Z,0.60
2022-11-18T19:31:03.975Z,0.50
2022-11-18T19:33:32.811Z,0.98
2022-11-18T19:36:03.445Z,0.50
2022-11-18T19:38:35.136Z,1.38
2022-11-18T19:41:04.067Z,1.10
2022-11-18T19:43:33.070Z,0.98
2022-11-18T19:46:09.105Z,1.85
2022-11-18T19:48:38.058Z,0.93
2022-11-18T19:51:08.923Z,1.08
2022-11-18T19:53:40.639Z,1.10
2022-11-18T19:56:10.275Z,1.10
2022-11-18T19:58:40.085Z,1.38
2022-11-18T20:01:12.818Z,1.13
2022-11-18T20:03:41.931Z,1.05
2022-11-18T20:06:11.801Z,0.73
2022-11-18T20:08:42.654Z,1.42
2022-11-18T20:11:12.335Z,1.85
2022-11-18T20:13:41.626Z,1.50
2022-11-18T20:16:11.380Z,2.25
2022-11-18T20:18:40.661Z,3.78
2022-11-18T20:21:10.428Z,2.45
2022-11-18T20:23:39.610Z,3.72
2022-11-18T20:26:11.591Z,3.55
2022-11-18T20:28:41.089Z,3.45
2022-11-18T20:31:16.100Z,8.88
2022-11-18T20:33:49.824Z,6.25
2022-11-18T20:36:19.839Z,4.45
2022-11-18T20:38:50.416Z,3.28
2022-11-18T20:41:21.325Z,4.07
2022-11-18T20:43:50.469Z,3.42
2022-11-18T20:46:21.024Z,1.33
2022-11-18T20:48:51.054Z,3.83
2022-11-18T20:51:21.060Z,2.85
2022-11-18T20:53:49.923Z,8.70
2022-11-18T20:56:22.926Z,5.72
2022-11-18T21:01:23.008Z,5.13
2022-11-18T21:03:53.427Z,5.78
2022-11-18T21:06:22.865Z,4.05
2022-11-18T21:08:55.938Z,4.13
2022-11-18T21:11:26.560Z,2.78
2022-11-18T21:14:13.177Z,4.18
2022-11-18T21:16:43.821Z,2.78
2022-11-18T21:19:13.099Z,2.08
2022-11-18T21:21:49.235Z,3.08
2022-11-18T21:24:18.726Z,3.65
2022-11-18T21:26:50.078Z,7.90
2022-11-18T21:29:19.618Z,7.30
2022-11-18T21:31:48.617Z,9.95
2022-11-18T21:34:24.680Z,8.40
2022-11-18T21:36:55.177Z,8.38
2022-11-18T21:39:25.072Z,5.60
2022-11-18T21:41:57.533Z,4.63
2022-11-18T21:44:28.533Z,4.35
2022-11-18T21:46:57.896Z,3.85
2022-11-18T21:49:26.661Z,2.58
2022-11-18T21:51:55.513Z,1.95
2022-11-18T21:54:32.257Z,1.70
2022-11-18T21:57:02.625Z,1.40
2022-11-18T21:59:31.532Z,2.83
2022-11-18T22:02:00.153Z,2.05
2022-11-18T22:04:42.772Z,1.45
2022-11-18T22:07:11.395Z,0.77
2022-11-18T22:09:40.122Z,0.52
2022-11-18T22:12:10.742Z,0.35
2022-11-18T22:14:39.455Z,0.57
2022-11-18T22:17:08.033Z,0.63
2022-11-18T22:19:41.335Z,0.30
2022-11-18T22:22:10.719Z,0.50
2022-11-18T22:24:39.343Z,0.75
2022-11-18T22:27:11.552Z,1.23
2022-11-18T22:29:40.590Z,0.73
2022-11-18T22:32:09.236Z,1.55
2022-11-18T22:34:37.927Z,0.63
2022-11-18T22:37:06.668Z,0.20
2022-11-18T22:39:35.356Z,0.30
2022-11-18T22:42:21.194Z,0.30
2022-11-18T22:44:51.457Z,0.45
2022-11-18T22:47:20.156Z,0.25
2022-11-18T22:49:52.186Z,0.68
2022-11-18T22:52:23.829Z,1.10
2022-11-18T22:54:53.688Z,3.97
2022-11-18T22:57:22.451Z,1.23
2022-11-18T22:59:52.783Z,0.50
2022-11-18T23:02:21.515Z,0.77
2022-11-18T23:04:50.109Z,0.40
2022-11-18T23:07:19.206Z,0.70
2022-11-18T23:09:47.898Z,1.10
2022-11-18T23:12:34.440Z,1.05
2022-11-18T23:15:04.798Z,0.20
2022-11-18T23:17:33.627Z,0.85
2022-11-18T23:20:02.283Z,0.00
2022-11-18T23:22:31.784Z,0.45
2022-11-18T23:25:00.601Z,0.52
2022-11-18T23:27:29.417Z,0.13
2022-11-18T23:29:58.143Z,0.10
2022-11-18T23:32:28.378Z,0.20
2022-11-18T23:34:57.127Z,0.17
2022-11-18T23:37:26.137Z,0.10
2022-11-18T23:39:54.874Z,0.25
2022-11-18T23:42:23.763Z,0.30
2022-11-18T23:44:53.120Z,0.38
2022-11-18T23:47:21.956Z,0.22
2022-11-18T23:49:51.915Z,0.30
2022-11-18T23:52:20.569Z,0.10
2022-11-18T23:54:52.737Z,0.35
2022-11-18T23:57:21.726Z,0.10
2022-11-18T23:59:50.337Z,0.82
